Time;durP1;ratioP1;P1;durP2;ratioP2;P2;SDS_P1;SDS_P2;PMS_P1;PMS_P2;Temp;Humidity;BMP_temperature;BMP_pressure;BME280_temperature;BME280_humidity;BME280_pressure;Samples;Min_cycle;Max_cycle;Signal;HPM_P1;HPM_P2
2022/03/29 00:02:20;;;;;;;93.60;44.00;;;;;;;6.92;59.95;98219.91;108313;1279;22707;-71
2022/03/29 00:04:47;;;;;;;116.50;51.80;;;;;;;6.91;61.25;98225.52;108309;1279;22545;-71
2022/03/29 00:07:14;;;;;;;127.60;53.90;;;;;;;6.83;62.39;98230.98;108319;1279;22724;-71
2022/03/29 00:09:41;;;;;;;118.60;54.30;;;;;;;6.78;62.21;98237.81;108319;1279;22626;-71
2022/03/29 00:12:09;;;;;;;93.30;44.90;;;;;;;6.76;62.09;98243.12;108330;1279;22547;-72
2022/03/29 00:14:36;;;;;;;66.10;30.60;;;;;;;6.78;63.14;98248.02;108312;1279;25301;-71
2022/03/29 00:17:03;;;;;;;51.00;25.40;;;;;;;6.89;62.89;98250.73;108307;1279;22617;-73
2022/03/29 00:19:30;;;;;;;61.70;29.20;;;;;;;6.98;62.64;98245.31;108272;1279;22620;-72
2022/03/29 00:21:57;;;;;;;84.80;42.60;;;;;;;7.04;63.26;98241.71;108311;1279;24439;-70
2022/03/29 00:24:24;;;;;;;97.20;46.40;;;;;;;7.04;63.50;98241.00;108312;1279;22547;-70
2022/03/29 00:26:50;;;;;;;87.30;45.40;;;;;;;7.01;63.85;98238.25;108304;1279;22545;-70
2022/03/29 00:29:18;;;;;;;69.60;36.80;;;;;;;6.99;63.50;98233.83;108317;1279;22544;-71
2022/03/29 00:31:45;;;;;;;58.60;31.30;;;;;;;7.00;64.14;98223.40;108311;1279;22623;-71
2022/03/29 00:34:12;;;;;;;62.40;31.90;;;;;;;7.03;64.32;98222.38;108307;1279;22544;-70
2022/03/29 00:36:40;;;;;;;49.40;25.80;;;;;;;7.07;64.02;98218.66;108302;1279;22558;-71
2022/03/29 00:39:07;;;;;;;39.70;23.20;;;;;;;7.16;63.94;98218.11;108319;1279;22658;-71
2022/03/29 00:41:34;;;;;;;38.40;22.10;;;;;;;7.27;64.19;98218.39;108317;1279;22575;-70
2022/03/29 00:44:01;;;;;;;35.80;21.50;;;;;;;7.35;65.15;98215.65;108331;1279;22551;-71
2022/03/29 00:46:28;;;;;;;34.50;20.60;;;;;;;7.42;65.17;98212.81;108288;1279;22543;-72
2022/03/29 00:48:55;;;;;;;29.70;18.30;;;;;;;7.49;65.27;98201.12;108325;1279;22540;-72
2022/03/29 00:51:23;;;;;;;35.80;20.20;;;;;;;7.57;65.47;98187.51;108310;1279;22738;-73
2022/03/29 00:53:51;;;;;;;31.90;19.10;;;;;;;7.63;64.65;98188.33;108337;1279;22620;-72
2022/03/29 00:56:22;;;;;;;32.40;19.20;;;;;;;7.67;64.33;98184.81;108338;1279;22550;-74
2022/03/29 00:58:49;;;;;;;32.20;18.60;;;;;;;7.71;65.14;98176.79;108329;1279;22564;-73
2022/03/29 01:01:16;;;;;;;26.70;17.10;;;;;;;7.77;64.80;98167.92;108327;1279;24311;-76
2022/03/29 01:03:43;;;;;;;28.70;17.10;;;;;;;7.80;65.42;98162.99;108329;1279;24094;-72
2022/03/29 01:06:11;;;;;;;33.10;19.40;;;;;;;7.82;66.02;98156.11;108349;1279;22549;-75
2022/03/29 01:08:38;;;;;;;39.10;21.90;;;;;;;7.80;66.18;98157.80;108322;1279;26056;-72
2022/03/29 01:11:06;;;;;;;41.80;23.80;;;;;;;7.78;66.79;98149.48;108306;1279;22550;-71
2022/03/29 01:13:33;;;;;;;40.90;21.90;;;;;;;7.77;66.45;98148.30;108333;1279;25338;-71
2022/03/29 01:17:38;;;;;;;41.40;23.40;;;;;;;7.76;66.56;98146.80;108282;1279;24335;-79
2022/03/29 01:18:48;;;;;;;39.00;22.70;;;;;;;7.73;66.98;98142.33;108314;1279;24229;-72
2022/03/29 01:21:17;;;;;;;34.00;21.40;;;;;;;7.68;65.96;98137.10;108332;1279;22534;-76
2022/03/29 01:23:46;;;;;;;34.10;20.70;;;;;;;7.67;66.02;98125.21;108406;1279;22547;-72
2022/03/29 01:26:16;;;;;;;30.70;19.30;;;;;;;7.64;66.29;98122.92;108339;1278;22533;-72
2022/03/29 01:28:44;;;;;;;36.50;21.20;;;;;;;7.62;67.12;98117.89;108323;1279;22544;-72
2022/03/29 01:31:12;;;;;;;33.50;20.80;;;;;;;7.58;67.30;98112.96;108322;1278;22656;-72
2022/03/29 01:33:42;;;;;;;40.10;22.40;;;;;;;7.52;67.04;98099.73;108390;1279;22544;-71
2022/03/29 01:36:09;;;;;;;43.70;24.80;;;;;;;7.47;66.99;98094.38;108317;1279;22682;-71
2022/03/29 01:38:36;;;;;;;46.80;27.20;;;;;;;7.41;67.28;98089.38;108321;1279;22540;-78
2022/03/29 01:41:05;;;;;;;46.30;27.60;;;;;;;7.37;67.33;98085.82;108339;1279;22532;-71
2022/03/29 01:43:33;;;;;;;50.70;27.10;;;;;;;7.37;67.00;98086.34;108329;1279;25999;-74
2022/03/29 01:46:01;;;;;;;51.40;26.10;;;;;;;7.36;67.51;98083.77;108326;1279;22540;-71
2022/03/29 01:48:28;;;;;;;56.50;28.90;;;;;;;7.35;68.08;98079.88;108334;1279;22544;-72
2022/03/29 01:50:55;;;;;;;59.00;31.70;;;;;;;7.33;68.16;98082.77;108306;1279;25250;-72
2022/03/29 01:53:24;;;;;;;52.60;29.50;;;;;;;7.31;68.50;98079.95;108293;1279;22542;-72
2022/03/29 01:55:56;;;;;;;47.40;27.30;;;;;;;7.31;68.14;98077.53;108311;1279;22579;-72
2022/03/29 01:58:24;;;;;;;48.90;26.60;;;;;;;7.28;67.95;98070.95;108135;1279;248162;-74
2022/03/29 02:00:52;;;;;;;41.20;24.60;;;;;;;7.22;67.96;98074.58;108309;1279;22551;-72
2022/03/29 02:03:19;;;;;;;41.60;24.00;;;;;;;7.21;67.65;98073.98;108332;1279;22653;-71
2022/03/29 02:05:46;;;;;;;54.00;30.40;;;;;;;7.14;68.49;98072.98;108311;1279;22621;-72
2022/03/29 02:08:13;;;;;;;62.40;33.80;;;;;;;7.03;69.14;98071.36;108293;1279;22526;-76
2022/03/29 02:10:40;;;;;;;61.10;35.00;;;;;;;6.90;69.52;98070.60;108293;1279;22695;-73
2022/03/29 02:13:10;;;;;;;64.10;35.10;;;;;;;6.76;69.30;98065.91;108305;1279;22570;-72
2022/03/29 02:15:39;;;;;;;61.60;35.30;;;;;;;6.66;69.73;98063.71;108140;1279;22562;-72
2022/03/29 02:18:06;;;;;;;57.30;32.10;;;;;;;6.60;69.48;98059.05;108318;1279;22549;-72
2022/03/29 02:20:33;;;;;;;52.10;29.00;;;;;;;6.59;69.30;98060.54;108307;1279;22639;-71
2022/03/29 02:23:06;;;;;;;49.70;27.50;;;;;;;6.52;70.08;98059.39;108316;1278;22661;-76
2022/03/29 02:25:34;;;;;;;57.10;29.90;;;;;;;6.41;70.22;98057.08;108293;1279;22550;-72
2022/03/29 02:28:02;;;;;;;51.80;30.80;;;;;;;6.30;70.35;98059.55;108322;1279;22802;-72
2022/03/29 02:30:32;;;;;;;59.00;33.90;;;;;;;6.22;70.78;98055.88;108275;1279;24252;-72
2022/03/29 02:33:01;;;;;;;54.70;31.30;;;;;;;6.16;70.37;98053.46;108307;1279;22547;-76
2022/03/29 02:35:29;;;;;;;55.10;33.40;;;;;;;6.11;70.34;98056.33;108311;1279;25378;-72
2022/03/29 02:37:56;;;;;;;56.70;30.30;;;;;;;6.11;70.36;98052.88;108348;1279;22550;-72
2022/03/29 02:40:23;;;;;;;48.60;29.30;;;;;;;6.10;70.34;98046.90;108319;1279;22626;-72
2022/03/29 02:42:52;;;;;;;55.10;31.30;;;;;;;6.07;71.15;98043.46;108293;1279;22549;-71
2022/03/29 02:45:21;;;;;;;56.90;32.90;;;;;;;6.02;71.22;98047.85;108325;1279;22560;-72
2022/03/29 02:47:54;;;;;;;62.40;32.70;;;;;;;5.98;71.08;98050.31;108322;1279;22544;-70
2022/03/29 02:50:23;;;;;;;60.30;34.50;;;;;;;5.96;70.95;98047.86;108349;1279;22644;-71
2022/03/29 02:53:01;;;;;;;64.50;37.60;;;;;;;5.95;71.09;98043.77;108338;1279;22608;-71
2022/03/29 02:55:31;;;;;;;54.80;34.10;;;;;;;5.96;71.09;98041.79;108327;1279;22580;-72
2022/03/29 02:57:59;;;;;;;56.20;34.10;;;;;;;6.00;71.52;98040.89;108314;1279;24410;-72
2022/03/29 03:00:26;;;;;;;53.60;32.00;;;;;;;6.01;71.79;98038.39;108314;1279;22685;-72
2022/03/29 03:02:55;;;;;;;55.90;33.20;;;;;;;6.00;72.44;98037.56;108301;1279;22530;-72
2022/03/29 03:05:24;;;;;;;52.00;33.30;;;;;;;6.00;72.13;98037.59;108315;1279;22717;-72
2022/03/29 03:07:52;;;;;;;56.80;32.40;;;;;;;6.00;71.58;98039.83;108312;1279;22659;-70
2022/03/29 03:10:19;;;;;;;62.30;34.50;;;;;;;5.97;71.53;98043.67;108296;1279;22706;-71
2022/03/29 03:12:48;;;;;;;59.80;37.10;;;;;;;5.93;71.91;98034.70;108277;1279;25256;-71
2022/03/29 03:15:18;;;;;;;55.20;34.20;;;;;;;5.88;72.31;98039.30;108307;1279;22560;-71
2022/03/29 03:17:45;;;;;;;69.20;38.70;;;;;;;5.83;72.92;98042.69;108304;1279;22562;-71
2022/03/29 03:20:13;;;;;;;72.90;41.70;;;;;;;5.74;73.09;98044.94;108321;1279;22810;-71
2022/03/29 03:22:40;;;;;;;72.20;43.50;;;;;;;5.61;72.92;98042.64;108273;1279;24231;-70
2022/03/29 03:25:08;;;;;;;74.40;42.10;;;;;;;5.49;72.75;98042.27;108314;1279;22547;-72
2022/03/29 03:27:36;;;;;;;63.70;36.40;;;;;;;5.40;72.54;98044.64;108307;1279;22633;-72
2022/03/29 03:30:05;;;;;;;59.70;35.00;;;;;;;5.37;73.44;98062.31;108285;1279;22539;-73
2022/03/29 03:32:32;;;;;;;58.10;33.50;;;;;;;5.26;74.03;98063.20;108292;1279;22640;-72
2022/03/29 03:35:00;;;;;;;62.40;35.10;;;;;;;5.15;74.31;98064.98;108317;1279;22541;-71
2022/03/29 03:37:27;;;;;;;65.50;37.40;;;;;;;5.07;74.36;98068.04;108185;1280;22563;-76
2022/03/29 03:39:54;;;;;;;65.70;35.70;;;;;;;5.01;74.13;98069.00;108294;1279;22542;-71
2022/03/29 03:42:21;;;;;;;61.60;35.60;;;;;;;4.97;73.64;98066.97;108304;1279;22598;-71
2022/03/29 03:44:48;;;;;;;46.90;27.70;;;;;;;4.93;73.89;98060.09;108315;1279;22701;-72
2022/03/29 03:47:15;;;;;;;57.90;31.20;;;;;;;4.97;74.01;98053.67;108310;1279;24001;-71
2022/03/29 03:49:42;;;;;;;53.00;29.10;;;;;;;5.04;73.63;98051.77;108300;1279;22728;-71
2022/03/29 03:52:09;;;;;;;48.90;27.70;;;;;;;5.11;74.25;98051.08;108294;1279;22556;-71
2022/03/29 03:54:36;;;;;;;60.30;33.60;;;;;;;5.12;74.91;98055.30;108295;1279;22544;-71
2022/03/29 03:57:05;;;;;;;54.80;33.20;;;;;;;5.07;74.94;98051.46;108292;1279;25438;-71
2022/03/29 03:59:32;;;;;;;58.20;33.60;;;;;;;5.03;74.25;98048.17;108344;1279;22567;-71
2022/03/29 04:02:00;;;;;;;51.90;29.10;;;;;;;5.01;74.02;98049.52;108316;1279;24296;-71
2022/03/29 04:04:27;;;;;;;56.00;34.50;;;;;;;5.03;74.43;98042.52;108320;1279;22544;-74
2022/03/29 04:06:54;;;;;;;57.80;34.00;;;;;;;5.08;74.81;98040.54;108275;1279;22547;-72
2022/03/29 04:09:21;;;;;;;48.10;29.80;;;;;;;5.14;74.70;98036.58;108296;1279;22697;-71
2022/03/29 04:11:48;;;;;;;51.40;28.00;;;;;;;5.19;75.09;98039.11;108289;1279;26508;-72
2022/03/29 04:14:16;;;;;;;54.80;28.90;;;;;;;5.21;74.88;98038.63;108280;1279;22563;-71
2022/03/29 04:16:43;;;;;;;48.90;28.50;;;;;;;5.23;74.67;98033.69;108289;1279;22553;-72
2022/03/29 04:19:10;;;;;;;43.00;27.00;;;;;;;5.24;74.91;98023.45;108298;1279;25313;-74
2022/03/29 04:21:37;;;;;;;43.40;26.00;;;;;;;5.32;74.87;98022.30;108298;1279;22852;-72
2022/03/29 04:24:05;;;;;;;43.80;23.70;;;;;;;5.41;75.33;98021.67;108297;1279;22554;-73
2022/03/29 04:26:32;;;;;;;41.40;23.50;;;;;;;5.51;75.63;98026.81;108303;1279;26634;-76
2022/03/29 04:28:59;;;;;;;47.20;27.40;;;;;;;5.54;75.84;98028.40;108289;1279;22546;-78
2022/03/29 04:31:26;;;;;;;50.90;28.50;;;;;;;5.49;75.78;98029.86;108293;1279;22711;-75
2022/03/29 04:33:53;;;;;;;49.00;27.80;;;;;;;5.46;75.26;98026.41;108354;1279;22897;-74
2022/03/29 04:36:20;;;;;;;48.00;26.10;;;;;;;5.47;75.04;98019.09;108329;1279;22623;-73
2022/03/29 04:38:47;;;;;;;47.40;26.40;;;;;;;5.56;74.90;98017.73;108330;1279;23268;-73
2022/03/29 04:41:14;;;;;;;47.80;25.60;;;;;;;5.64;75.56;98025.95;108357;1279;22573;-75
2022/03/29 04:43:42;;;;;;;53.80;30.40;;;;;;;5.66;76.09;98029.26;108361;1279;22652;-72
2022/03/29 04:46:09;;;;;;;51.50;30.10;;;;;;;5.56;75.48;98028.45;108312;1279;24308;-74
2022/03/29 04:48:36;;;;;;;47.00;28.30;;;;;;;5.46;75.40;98025.54;108314;1279;22652;-72
2022/03/29 04:51:03;;;;;;;49.10;27.60;;;;;;;5.41;75.07;98022.38;108319;1279;22522;-72
2022/03/29 04:53:30;;;;;;;50.30;27.60;;;;;;;5.43;74.99;98021.71;108319;1279;22556;-72
2022/03/29 04:55:57;;;;;;;46.10;27.60;;;;;;;5.54;74.73;98030.46;108319;1279;22541;-71
2022/03/29 04:58:25;;;;;;;41.90;25.60;;;;;;;5.62;75.38;98035.52;108285;1279;25538;-71
2022/03/29 05:00:53;;;;;;;51.20;28.90;;;;;;;5.65;75.93;98035.71;108300;1279;24310;-71
2022/03/29 05:03:20;;;;;;;53.70;30.70;;;;;;;5.65;75.46;98035.83;108318;1279;22623;-72
2022/03/29 05:05:46;;;;;;;51.70;29.70;;;;;;;5.70;75.47;98035.47;108319;1279;22650;-69
2022/03/29 05:08:13;;;;;;;50.90;30.20;;;;;;;5.75;75.07;98035.34;108295;1279;22550;-73
2022/03/29 05:10:40;;;;;;;49.20;30.50;;;;;;;5.82;75.10;98038.96;108295;1279;24281;-70
2022/03/29 05:13:09;;;;;;;51.80;29.60;;;;;;;5.88;75.42;98050.54;108310;1279;22534;-71
2022/03/29 05:15:36;;;;;;;40.30;25.40;;;;;;;5.87;75.90;98051.45;108307;1279;22560;-72
2022/03/29 05:18:03;;;;;;;49.00;28.00;;;;;;;5.81;75.95;98049.33;108306;1279;22551;-71
2022/03/29 05:20:31;;;;;;;48.40;28.80;;;;;;;5.78;75.92;98050.05;108298;1279;22541;-71
2022/03/29 05:22:59;;;;;;;52.20;29.30;;;;;;;5.82;76.15;98043.77;108272;1279;22586;-71
2022/03/29 05:25:27;;;;;;;55.40;28.60;;;;;;;5.90;75.57;98043.90;108323;1279;22542;-82
2022/03/29 05:27:57;;;;;;;52.90;27.20;;;;;;;6.00;75.34;98052.98;108242;1279;22545;-70
2022/03/29 05:30:25;;;;;;;47.20;28.70;;;;;;;6.17;75.23;98057.77;108312;1279;22533;-71
2022/03/29 05:32:57;;;;;;;43.40;26.30;;;;;;;6.27;76.14;98057.69;108322;1279;22566;-70
2022/03/29 05:35:30;;;;;;;48.00;28.10;;;;;;;6.34;76.35;98063.67;108336;1279;24368;-70
2022/03/29 05:37:59;;;;;;;45.40;29.00;;;;;;;6.40;76.43;98065.42;108324;1279;24438;-70
2022/03/29 05:40:28;;;;;;;46.70;28.80;;;;;;;6.41;76.03;98060.52;108350;1279;24586;-70
2022/03/29 05:42:56;;;;;;;48.60;28.30;;;;;;;6.44;75.86;98054.84;108370;1279;22623;-70
2022/03/29 05:45:23;;;;;;;49.40;28.00;;;;;;;6.53;75.31;98046.87;108335;1279;22566;-70
2022/03/29 05:50:40;;;;;;;45.20;27.60;;;;;;;6.80;75.37;98058.59;108021;1279;22625;-70
2022/03/29 05:53:07;;;;;;;48.00;29.00;;;;;;;6.89;75.62;98065.51;108294;1279;22545;-74
2022/03/29 05:55:34;;;;;;;51.40;31.70;;;;;;;6.96;75.73;98069.55;108309;1279;22565;-71
2022/03/29 05:58:01;;;;;;;62.30;39.80;;;;;;;7.05;76.06;98067.27;108315;1279;22646;-70
2022/03/29 06:00:30;;;;;;;45.60;29.00;;;;;;;7.19;75.36;98077.17;108304;1279;22650;-70
2022/03/29 06:02:58;;;;;;;43.30;25.30;;;;;;;7.35;75.01;98080.89;108292;1279;24237;-80
2022/03/29 06:05:25;;;;;;;39.80;24.60;;;;;;;7.54;74.78;98089.94;108286;1279;22660;-70
2022/03/29 06:07:52;;;;;;;45.80;24.50;;;;;;;7.71;75.04;98090.30;108289;1279;22643;-70
2022/03/29 06:10:19;;;;;;;43.20;25.80;;;;;;;7.85;75.25;98093.04;108295;1279;22637;-75
2022/03/29 06:12:47;;;;;;;37.60;23.40;;;;;;;7.97;74.84;98093.84;108287;1279;22620;-79
2022/03/29 06:15:15;;;;;;;40.50;26.10;;;;;;;8.08;74.64;98092.82;108284;1279;22559;-71
2022/03/29 06:17:43;;;;;;;46.50;28.60;;;;;;;8.20;74.06;98090.48;108305;1280;22536;-69
2022/03/29 06:20:11;;;;;;;42.90;26.50;;;;;;;8.30;73.97;98087.60;108302;1279;22674;-69
2022/03/29 06:22:43;;;;;;;31.80;20.30;;;;;;;8.37;73.62;98084.39;108291;1279;22549;-69
2022/03/29 06:25:12;;;;;;;34.80;20.20;;;;;;;8.53;73.20;98081.59;108322;1281;24236;-71
2022/03/29 06:27:39;;;;;;;34.50;23.90;;;;;;;8.62;73.08;98081.29;108209;1281;22552;-70
2022/03/29 06:30:08;;;;;;;36.80;23.80;;;;;;;8.68;72.68;98076.61;108314;1279;22675;-81
2022/03/29 06:32:46;;;;;;;34.60;21.70;;;;;;;8.77;72.54;98076.90;108302;1281;22566;-70
2022/03/29 06:35:13;;;;;;;36.10;22.80;;;;;;;8.82;71.65;98081.21;108309;1279;22559;-70
2022/03/29 06:37:40;;;;;;;37.20;23.40;;;;;;;8.87;71.05;98078.27;108296;1279;22763;-70
2022/03/29 06:40:08;;;;;;;37.70;22.40;;;;;;;8.97;70.98;98074.49;108324;1279;22531;-69
2022/03/29 06:42:36;;;;;;;36.60;23.00;;;;;;;9.05;70.89;98076.23;108029;1279;22746;-73
2022/03/29 06:45:04;;;;;;;33.80;23.20;;;;;;;9.11;70.40;98072.50;108080;1281;22771;-70
2022/03/29 06:47:32;;;;;;;34.40;21.90;;;;;;;9.22;70.60;98071.74;108320;1279;22659;-70
2022/03/29 06:49:59;;;;;;;31.90;20.30;;;;;;;9.35;70.20;98071.49;108292;1281;22723;-70
2022/03/29 06:52:28;;;;;;;31.50;20.20;;;;;;;9.50;70.45;98072.92;108306;1279;22643;-71
2022/03/29 06:54:55;;;;;;;37.10;23.50;;;;;;;9.60;70.10;98070.83;108296;1279;22547;-70
2022/03/29 06:57:22;;;;;;;35.70;23.80;;;;;;;9.71;69.75;98074.42;108294;1281;22549;-70
2022/03/29 06:59:49;;;;;;;30.50;18.90;;;;;;;9.82;69.38;98072.95;108291;1281;22568;-74
2022/03/29 07:02:16;;;;;;;27.90;18.00;;;;;;;9.89;68.63;98075.17;108293;1281;22577;-79
2022/03/29 07:04:43;;;;;;;30.90;20.00;;;;;;;9.92;68.22;98075.82;108310;1279;25400;-70
2022/03/29 07:07:10;;;;;;;28.60;18.90;;;;;;;10.00;67.63;98072.66;108309;1280;22620;-72
2022/03/29 07:12:23;;;;;;;30.40;20.00;;;;;;;10.03;66.16;98073.64;108309;1281;22537;-79
2022/03/29 07:14:51;;;;;;;28.90;19.20;;;;;;;10.07;66.37;98079.09;108303;1280;23212;-74
2022/03/29 07:17:19;;;;;;;28.80;17.60;;;;;;;10.15;66.42;98075.60;108294;1281;22506;-72
2022/03/29 07:19:46;;;;;;;29.00;19.00;;;;;;;10.22;65.95;98071.98;108305;1281;22762;-78
2022/03/29 07:22:13;;;;;;;26.80;17.90;;;;;;;10.21;65.68;98075.04;108292;1281;22630;-75
2022/03/29 07:24:40;;;;;;;28.30;18.70;;;;;;;10.23;65.42;98076.80;108316;1281;25302;-70
2022/03/29 07:27:08;;;;;;;27.90;19.10;;;;;;;10.29;65.32;98080.20;108353;1281;22560;-70
2022/03/29 07:29:36;;;;;;;27.00;17.40;;;;;;;10.39;65.04;98086.08;108351;1281;22619;-73
2022/03/29 07:32:03;;;;;;;22.80;15.20;;;;;;;10.54;65.26;98085.83;108276;1281;25384;-71
2022/03/29 07:34:35;;;;;;;25.80;17.40;;;;;;;10.67;65.84;98082.92;108315;1281;22652;-71
2022/03/29 07:37:03;;;;;;;25.10;16.20;;;;;;;10.77;65.30;98078.68;108299;1281;22606;-71
2022/03/29 07:39:30;;;;;;;30.40;17.50;;;;;;;10.87;64.82;98079.64;108606;1279;22571;-72
2022/03/29 07:41:57;;;;;;;25.40;18.10;;;;;;;10.96;64.44;98074.35;108211;1281;22550;-72
2022/03/29 07:44:24;;;;;;;27.10;18.50;;;;;;;11.03;63.73;98071.66;108226;1281;22632;-74
2022/03/29 07:46:51;;;;;;;30.40;19.80;;;;;;;11.06;63.66;98069.04;108227;1279;22586;-72
2022/03/29 07:49:18;;;;;;;27.80;17.30;;;;;;;11.12;63.30;98070.98;108245;1279;22596;-72
2022/03/29 07:51:45;;;;;;;22.60;15.90;;;;;;;11.18;62.89;98068.58;108248;1281;22919;-78
2022/03/29 07:54:12;;;;;;;20.80;14.10;;;;;;;11.23;62.66;98065.09;108297;1279;22566;-73
2022/03/29 07:56:39;;;;;;;20.10;13.50;;;;;;;11.25;62.32;98067.38;108286;1279;25459;-72
2022/03/29 07:59:06;;;;;;;18.40;13.00;;;;;;;11.29;61.54;98064.98;108302;1279;22656;-76
2022/03/29 08:01:33;;;;;;;21.80;11.40;;;;;;;11.29;61.21;98064.61;108315;1281;22546;-75
2022/03/29 08:04:00;;;;;;;13.70;9.50;;;;;;;11.35;60.71;98061.89;108295;1280;25320;-72
2022/03/29 08:06:27;;;;;;;17.50;9.90;;;;;;;11.44;60.81;98061.73;108326;1281;22534;-71
2022/03/29 08:08:54;;;;;;;13.00;9.40;;;;;;;11.51;59.82;98058.36;108327;1281;22617;-71
2022/03/29 08:11:22;;;;;;;15.90;10.40;;;;;;;11.61;59.28;98057.95;108286;1281;22646;-82
2022/03/29 08:13:49;;;;;;;16.60;9.80;;;;;;;11.59;58.30;98057.95;108305;1280;22537;-75
2022/03/29 08:16:16;;;;;;;18.10;10.00;;;;;;;11.61;58.10;98057.92;108280;1281;22546;-77
2022/03/29 08:18:43;;;;;;;18.00;9.90;;;;;;;11.59;58.05;98057.71;108255;1279;22576;-73
2022/03/29 08:23:56;;;;;;;14.50;10.10;;;;;;;11.67;57.48;98058.04;108311;1281;25016;-77
2022/03/29 08:26:23;;;;;;;14.70;9.70;;;;;;;11.68;57.13;98056.56;108284;1281;22551;-72
2022/03/29 08:28:50;;;;;;;16.00;10.40;;;;;;;11.71;56.87;98054.77;108303;1281;22556;-76
2022/03/29 08:31:18;;;;;;;16.50;11.30;;;;;;;11.67;56.91;98053.45;108276;1281;25404;-76
2022/03/29 08:33:45;;;;;;;17.70;10.60;;;;;;;11.74;56.62;98056.60;108287;1281;22564;-76
2022/03/29 08:36:12;;;;;;;17.60;10.60;;;;;;;11.80;56.66;98055.66;108298;1281;22532;-84
2022/03/29 08:38:39;;;;;;;16.00;10.40;;;;;;;11.85;56.94;98050.86;108284;1281;22549;-71
2022/03/29 08:41:06;;;;;;;17.10;11.20;;;;;;;12.00;56.76;98052.45;108300;1280;22525;-71
2022/03/29 08:43:33;;;;;;;15.70;10.80;;;;;;;12.16;56.57;98058.33;108298;1281;22610;-78
2022/03/29 08:46:00;;;;;;;20.00;10.90;;;;;;;12.25;55.82;98054.63;108275;1279;22807;-72
2022/03/29 08:48:29;;;;;;;16.70;11.10;;;;;;;12.30;55.54;98057.84;108317;1281;25342;-83
2022/03/29 08:50:59;;;;;;;20.70;12.00;;;;;;;12.34;55.58;98053.68;108303;1279;25372;-70
2022/03/29 08:53:28;;;;;;;18.40;11.00;;;;;;;12.40;55.32;98056.99;108313;1281;22553;-75
2022/03/29 08:55:55;;;;;;;16.80;11.70;;;;;;;12.52;55.28;98053.61;108311;1280;22620;-73
2022/03/29 08:58:23;;;;;;;13.80;10.70;;;;;;;12.57;55.10;98051.31;108303;1280;22620;-94
2022/03/29 09:00:51;;;;;;;14.40;10.70;;;;;;;12.66;55.04;98049.50;108269;1279;25525;-73
2022/03/29 09:03:18;;;;;;;15.60;11.10;;;;;;;12.81;54.84;98052.62;108297;1281;22560;-72
2022/03/29 09:05:48;;;;;;;18.90;11.20;;;;;;;12.94;54.46;98051.88;108319;1280;22703;-72
2022/03/29 09:08:15;;;;;;;18.70;11.70;;;;;;;13.06;54.53;98053.66;108339;1279;22620;-75
2022/03/29 09:10:45;;;;;;;18.70;12.50;;;;;;;13.23;54.59;98048.41;108342;1281;22544;-73
2022/03/29 09:13:22;;;;;;;17.10;12.30;;;;;;;13.39;54.02;98045.90;108267;1279;22708;-71
2022/03/29 09:15:51;;;;;;;16.50;10.80;;;;;;;13.54;53.35;98043.39;108326;1280;22559;-71
2022/03/29 09:18:19;;;;;;;17.20;11.80;;;;;;;13.73;52.61;98045.11;108327;1279;22733;-71
2022/03/29 09:20:47;;;;;;;26.60;14.10;;;;;;;13.71;52.38;98042.50;108295;1279;22712;-71
2022/03/29 09:23:17;;;;;;;44.10;20.80;;;;;;;13.72;52.47;98036.60;108305;1281;22552;-80
2022/03/29 09:25:50;;;;;;;21.70;14.00;;;;;;;13.85;52.27;98031.08;108297;1279;22638;-71
2022/03/29 09:28:20;;;;;;;18.20;12.10;;;;;;;13.93;52.09;98030.94;108295;1279;22714;-77
2022/03/29 09:30:52;;;;;;;16.10;10.60;;;;;;;13.97;51.74;98030.94;108278;1279;25245;-76
2022/03/29 09:33:21;;;;;;;17.50;11.00;;;;;;;14.03;51.14;98027.39;108284;1279;22676;-72
2022/03/29 09:36:20;;;;;;;16.10;11.30;;;;;;;14.11;51.01;98029.14;108299;1279;22660;-74
2022/03/29 09:38:52;;;;;;;20.60;11.60;;;;;;;14.10;51.14;98029.02;108273;1279;22546;-75
2022/03/29 09:41:26;;;;;;;17.00;10.60;;;;;;;14.17;51.20;98024.16;108325;1279;22622;-77
2022/03/29 09:44:10;;;;;;;18.00;11.50;;;;;;;14.27;50.33;98022.63;108288;1279;23067;-77
2022/03/29 09:46:59;;;;;;;;;;;;;;;14.35;49.55;98019.63;108338;1279;23844;-73
2022/03/29 09:49:27;;;;;;;16.40;10.90;;;;;;;14.19;49.24;98020.71;108281;1279;22544;-80
2022/03/29 09:52:10;;;;;;;16.40;11.70;;;;;;;14.16;49.48;98022.05;108307;1279;24430;-79
2022/03/29 09:54:38;;;;;;;22.80;13.40;;;;;;;14.14;49.59;98017.09;108217;1279;22567;-71
2022/03/29 09:57:05;;;;;;;21.80;12.20;;;;;;;14.11;49.56;98014.61;108286;1279;22616;-77
2022/03/29 09:59:32;;;;;;;21.20;12.10;;;;;;;14.23;49.44;98013.28;108284;1279;22552;-79
2022/03/29 10:02:00;;;;;;;18.80;12.60;;;;;;;14.20;49.01;98007.64;108275;1279;22718;-73
2022/03/29 10:04:30;;;;;;;18.10;12.20;;;;;;;14.14;49.40;98008.05;108303;1279;22569;-73
2022/03/29 10:07:03;;;;;;;17.60;12.10;;;;;;;14.20;49.25;98007.15;108320;1279;22653;-80
2022/03/29 10:09:33;;;;;;;16.80;11.90;;;;;;;14.33;49.53;98005.27;108291;1279;22728;-76
2022/03/29 10:12:04;;;;;;;17.50;11.30;;;;;;;14.50;49.29;98004.96;108297;1279;22571;-71
2022/03/29 10:14:37;;;;;;;20.80;12.40;;;;;;;14.55;49.13;98002.17;108316;1279;22619;-72
2022/03/29 10:17:08;;;;;;;19.90;12.00;;;;;;;14.63;48.93;98002.39;108307;1279;25453;-77
2022/03/29 10:19:37;;;;;;;20.10;13.10;;;;;;;14.70;48.58;97999.30;108362;1279;22561;-77
2022/03/29 10:22:05;;;;;;;24.50;13.90;;;;;;;14.70;48.64;97997.14;108276;1279;22607;-82
2022/03/29 10:24:33;;;;;;;19.70;13.60;;;;;;;14.77;48.54;97996.85;108316;1279;23375;-82
2022/03/29 10:27:01;;;;;;;21.20;13.30;;;;;;;14.86;48.25;97989.89;108364;1279;22554;-81
2022/03/29 10:29:30;;;;;;;17.60;12.60;;;;;;;14.89;48.33;97988.75;108342;1279;23987;-72
2022/03/29 10:32:02;;;;;;;21.50;13.70;;;;;;;14.94;48.14;97982.68;108321;1279;22563;-73
2022/03/29 10:34:37;;;;;;;21.50;12.90;;;;;;;14.93;47.57;97975.43;108167;1279;22696;-82
2022/03/29 10:37:12;;;;;;;18.30;13.20;;;;;;;14.93;47.40;97972.05;108144;1266;22558;-73
2022/03/29 10:42:32;;;;;;;18.60;13.70;;;;;;;15.02;46.89;97964.52;108173;1274;22552;-73
2022/03/29 10:45:24;;;;;;;17.80;12.00;;;;;;;14.87;46.73;97968.38;108062;1279;22539;-79
2022/03/29 10:47:58;;;;;;;21.20;14.30;;;;;;;14.81;47.30;97962.86;108361;1278;22608;-75
2022/03/29 10:50:54;;;;;;;21.00;13.50;;;;;;;14.87;47.14;97962.27;108329;1277;24098;-78
2022/03/29 10:53:21;;;;;;;18.10;12.80;;;;;;;14.93;47.27;97959.56;108343;1279;23453;-81
2022/03/29 10:56:19;;;;;;;18.40;13.20;;;;;;;15.10;47.08;97955.36;108338;1279;25338;-82
2022/03/29 10:59:01;;;;;;;22.40;13.50;;;;;;;15.14;47.11;97949.58;108338;1278;25504;-79
2022/03/29 11:01:33;;;;;;;22.00;13.80;;;;;;;15.33;47.10;97948.48;108342;1278;22599;-75
2022/03/29 11:04:07;;;;;;;21.90;13.70;;;;;;;15.45;46.93;97950.69;108331;1278;22702;-79
2022/03/29 11:06:36;;;;;;;23.10;15.10;;;;;;;15.50;46.59;97944.00;108349;1279;22576;-73
2022/03/29 11:09:02;;;;;;;21.70;14.40;;;;;;;15.55;46.35;97944.59;108329;1278;22658;-75
2022/03/29 11:11:48;;;;;;;21.80;14.00;;;;;;;15.55;46.25;97942.33;108355;1279;22560;-82
2022/03/29 11:14:30;;;;;;;21.30;14.20;;;;;;;15.57;46.16;97939.52;108356;1279;24414;-83
2022/03/29 11:17:08;;;;;;;18.90;13.80;;;;;;;15.66;46.21;97937.58;108321;1279;22563;-79
2022/03/29 11:19:48;;;;;;;17.20;13.00;;;;;;;15.79;45.08;97933.50;108139;1278;22638;-75
2022/03/29 11:22:21;;;;;;;23.90;15.00;;;;;;;15.66;44.91;97936.00;108133;1279;22562;-73
2022/03/29 11:24:50;;;;;;;24.00;14.60;;;;;;;15.55;45.46;97931.45;108085;1278;22697;-71
2022/03/29 11:27:34;;;;;;;22.80;15.30;;;;;;;15.64;45.50;97928.31;108110;1278;22620;-71
2022/03/29 11:30:05;;;;;;;18.80;13.60;;;;;;;15.69;44.88;97929.77;108065;1278;22745;-71
2022/03/29 11:32:34;;;;;;;19.00;13.20;;;;;;;15.60;45.16;97927.94;108010;1279;22697;-76
2022/03/29 11:35:05;;;;;;;18.40;13.50;;;;;;;15.64;45.28;97933.02;108005;1278;22562;-74